sensor_id;sensor_type;location;lat;lon;timestamp;pressure;altitude;pressure_sealevel;temperature;humidity
71126;BME280;58785;55.566;38.058;2023-04-30T00:00:22;100706.28;;;4.63;74.20
71126;BME280;58785;55.566;38.058;2023-04-30T00:02:47;100707.22;;;4.62;74.07
71126;BME280;58785;55.566;38.058;2023-04-30T00:05:13;100720.50;;;4.60;73.92
71126;BME280;58785;55.566;38.058;2023-04-30T00:07:39;100706.94;;;4.52;73.92
71126;BME280;58785;55.566;38.058;2023-04-30T00:10:08;100714.66;;;4.55;74.57
71126;BME280;58785;55.566;38.058;2023-04-30T00:12:36;100714.94;;;4.51;74.27
71126;BME280;58785;55.566;38.058;2023-04-30T00:15:02;100722.50;;;4.43;74.03
71126;BME280;58785;55.566;38.058;2023-04-30T00:17:32;100724.09;;;4.45;74.49
71126;BME280;58785;55.566;38.058;2023-04-30T00:19:58;100726.94;;;4.42;74.65
71126;BME280;58785;55.566;38.058;2023-04-30T00:22:24;100735.81;;;4.41;73.75
71126;BME280;58785;55.566;38.058;2023-04-30T00:24:49;100734.91;;;4.41;74.32
71126;BME280;58785;55.566;38.058;2023-04-30T00:27:16;100722.66;;;4.40;74.18
71126;BME280;58785;55.566;38.058;2023-04-30T00:29:41;100733.31;;;4.38;73.93
71126;BME280;58785;55.566;38.058;2023-04-30T00:32:07;100726.34;;;4.37;73.95
71126;BME280;58785;55.566;38.058;2023-04-30T00:34:33;100717.94;;;4.30;74.38
71126;BME280;58785;55.566;38.058;2023-04-30T00:36:58;100728.50;;;4.30;74.17
71126;BME280;58785;55.566;38.058;2023-04-30T00:39:24;100726.25;;;4.24;74.41
71126;BME280;58785;55.566;38.058;2023-04-30T00:41:50;100726.91;;;4.28;74.00
71126;BME280;58785;55.566;38.058;2023-04-30T00:44:15;100732.09;;;4.29;74.26
71126;BME280;58785;55.566;38.058;2023-04-30T00:46:41;100730.28;;;4.30;74.44
71126;BME280;58785;55.566;38.058;2023-04-30T00:49:07;100729.53;;;4.28;74.48
71126;BME280;58785;55.566;38.058;2023-04-30T00:51:34;100729.44;;;4.29;74.14
71126;BME280;58785;55.566;38.058;2023-04-30T00:54:00;100731.34;;;4.27;74.26
71126;BME280;58785;55.566;38.058;2023-04-30T00:56:30;100733.63;;;4.33;74.43
71126;BME280;58785;55.566;38.058;2023-04-30T00:58:56;100730.97;;;4.33;74.03
71126;BME280;58785;55.566;38.058;2023-04-30T01:01:25;100729.38;;;4.31;74.47
71126;BME280;58785;55.566;38.058;2023-04-30T01:03:53;100725.41;;;4.24;74.82
71126;BME280;58785;55.566;38.058;2023-04-30T01:06:19;100725.56;;;4.21;74.62
71126;BME280;58785;55.566;38.058;2023-04-30T01:08:46;100732.38;;;4.25;75.18
71126;BME280;58785;55.566;38.058;2023-04-30T01:14:09;100732.38;;;4.39;74.55
71126;BME280;58785;55.566;38.058;2023-04-30T01:16:46;100727.59;;;4.31;74.87
71126;BME280;58785;55.566;38.058;2023-04-30T01:21:51;100741.34;;;4.37;75.08
71126;BME280;58785;55.566;38.058;2023-04-30T01:30:10;100748.63;;;4.47;74.79
71126;BME280;58785;55.566;38.058;2023-04-30T01:32:37;100739.00;;;4.46;74.79
71126;BME280;58785;55.566;38.058;2023-04-30T01:35:03;100744.94;;;4.50;74.66
71126;BME280;58785;55.566;38.058;2023-04-30T01:37:44;100752.59;;;4.54;74.91
71126;BME280;58785;55.566;38.058;2023-04-30T01:45:32;100736.66;;;4.56;74.85
71126;BME280;58785;55.566;38.058;2023-04-30T01:48:38;100738.34;;;4.57;75.10
71126;BME280;58785;55.566;38.058;2023-04-30T01:51:10;100737.28;;;4.59;75.12
71126;BME280;58785;55.566;38.058;2023-04-30T01:53:41;100727.38;;;4.49;75.19
71126;BME280;58785;55.566;38.058;2023-04-30T01:56:17;100749.75;;;4.57;74.96
71126;BME280;58785;55.566;38.058;2023-04-30T01:58:48;100744.56;;;4.56;74.96
71126;BME280;58785;55.566;38.058;2023-04-30T02:01:31;100741.53;;;4.48;75.24
71126;BME280;58785;55.566;38.058;2023-04-30T02:03:57;100732.78;;;4.47;75.58
71126;BME280;58785;55.566;38.058;2023-04-30T02:06:24;100730.53;;;4.41;75.37
71126;BME280;58785;55.566;38.058;2023-04-30T02:08:56;100740.88;;;4.44;75.41
71126;BME280;58785;55.566;38.058;2023-04-30T02:11:28;100742.59;;;4.45;75.69
71126;BME280;58785;55.566;38.058;2023-04-30T02:13:53;100727.59;;;4.46;75.67
71126;BME280;58785;55.566;38.058;2023-04-30T02:16:19;100734.09;;;4.54;75.76
71126;BME280;58785;55.566;38.058;2023-04-30T02:18:46;100729.56;;;4.56;75.37
71126;BME280;58785;55.566;38.058;2023-04-30T02:21:12;100716.47;;;4.55;75.53
71126;BME280;58785;55.566;38.058;2023-04-30T02:23:39;100715.06;;;4.64;75.77
71126;BME280;58785;55.566;38.058;2023-04-30T02:26:04;100719.66;;;4.74;75.44
71126;BME280;58785;55.566;38.058;2023-04-30T02:28:30;100730.41;;;4.85;75.68
71126;BME280;58785;55.566;38.058;2023-04-30T02:30:56;100719.94;;;4.84;75.29
71126;BME280;58785;55.566;38.058;2023-04-30T02:33:22;100724.75;;;4.92;75.71
71126;BME280;58785;55.566;38.058;2023-04-30T02:35:47;100707.84;;;4.94;75.71
71126;BME280;58785;55.566;38.058;2023-04-30T02:38:13;100696.59;;;4.90;75.62
71126;BME280;58785;55.566;38.058;2023-04-30T02:40:40;100716.16;;;5.02;75.75
71126;BME280;58785;55.566;38.058;2023-04-30T02:43:06;100711.81;;;5.01;75.51
71126;BME280;58785;55.566;38.058;2023-04-30T02:45:31;100695.75;;;4.90;75.73
71126;BME280;58785;55.566;38.058;2023-04-30T02:47:57;100709.25;;;5.00;75.85
71126;BME280;58785;55.566;38.058;2023-04-30T02:50:23;100705.00;;;4.97;75.75
71126;BME280;58785;55.566;38.058;2023-04-30T02:52:49;100711.81;;;5.01;75.74
71126;BME280;58785;55.566;38.058;2023-04-30T02:55:14;100716.59;;;5.09;75.56
71126;BME280;58785;55.566;38.058;2023-04-30T02:57:41;100707.66;;;5.11;75.40
71126;BME280;58785;55.566;38.058;2023-04-30T03:00:07;100707.34;;;5.16;75.38
71126;BME280;58785;55.566;38.058;2023-04-30T03:02:32;100707.22;;;5.17;75.87
71126;BME280;58785;55.566;38.058;2023-04-30T03:04:58;100706.84;;;5.24;75.41
71126;BME280;58785;55.566;38.058;2023-04-30T03:07:24;100698.06;;;5.23;75.15
71126;BME280;58785;55.566;38.058;2023-04-30T03:09:49;100699.81;;;5.37;75.20
71126;BME280;58785;55.566;38.058;2023-04-30T03:12:15;100706.19;;;5.47;74.75
71126;BME280;58785;55.566;38.058;2023-04-30T03:14:41;100710.69;;;5.59;74.92
71126;BME280;58785;55.566;38.058;2023-04-30T03:17:07;100697.78;;;5.67;74.18
71126;BME280;58785;55.566;38.058;2023-04-30T03:19:32;100687.44;;;5.77;74.16
71126;BME280;58785;55.566;38.058;2023-04-30T03:21:58;100693.72;;;5.89;73.99
71126;BME280;58785;55.566;38.058;2023-04-30T03:24:24;100707.53;;;5.94;73.89
71126;BME280;58785;55.566;38.058;2023-04-30T03:26:49;100682.88;;;5.93;73.76
71126;BME280;58785;55.566;38.058;2023-04-30T03:29:15;100689.63;;;6.10;73.86
71126;BME280;58785;55.566;38.058;2023-04-30T03:31:41;100676.00;;;6.16;73.54
71126;BME280;58785;55.566;38.058;2023-04-30T03:34:07;100674.41;;;6.26;73.74
71126;BME280;58785;55.566;38.058;2023-04-30T03:36:33;100688.91;;;6.46;72.86
71126;BME280;58785;55.566;38.058;2023-04-30T03:38:59;100664.75;;;6.63;73.14
71126;BME280;58785;55.566;38.058;2023-04-30T03:41:25;100675.38;;;6.87;72.73
71126;BME280;58785;55.566;38.058;2023-04-30T03:43:51;100671.53;;;7.04;72.57
71126;BME280;58785;55.566;38.058;2023-04-30T03:46:17;100654.59;;;7.18;72.40
71126;BME280;58785;55.566;38.058;2023-04-30T03:48:42;100658.56;;;7.36;71.66
71126;BME280;58785;55.566;38.058;2023-04-30T03:51:09;100657.31;;;7.53;71.98
71126;BME280;58785;55.566;38.058;2023-04-30T03:53:35;100658.56;;;7.71;71.60
71126;BME280;58785;55.566;38.058;2023-04-30T03:56:01;100667.06;;;7.88;71.61
71126;BME280;58785;55.566;38.058;2023-04-30T03:58:28;100650.28;;;7.87;70.94
71126;BME280;58785;55.566;38.058;2023-04-30T04:00:54;100672.53;;;7.97;70.89
71126;BME280;58785;55.566;38.058;2023-04-30T04:03:20;100656.59;;;7.97;70.64
71126;BME280;58785;55.566;38.058;2023-04-30T04:05:47;100662.75;;;7.98;71.32
71126;BME280;58785;55.566;38.058;2023-04-30T04:08:13;100661.31;;;8.05;71.17
71126;BME280;58785;55.566;38.058;2023-04-30T04:10:39;100652.28;;;8.07;70.72
71126;BME280;58785;55.566;38.058;2023-04-30T04:13:05;100665.56;;;8.07;71.36
71126;BME280;58785;55.566;38.058;2023-04-30T04:15:32;100654.91;;;8.07;71.23
71126;BME280;58785;55.566;38.058;2023-04-30T04:17:58;100649.38;;;8.11;70.92
71126;BME280;58785;55.566;38.058;2023-04-30T04:20:24;100641.53;;;8.20;70.67
71126;BME280;58785;55.566;38.058;2023-04-30T04:22:50;100645.41;;;8.27;70.91
71126;BME280;58785;55.566;38.058;2023-04-30T04:25:16;100642.06;;;8.37;70.64
71126;BME280;58785;55.566;38.058;2023-04-30T04:27:43;100644.34;;;8.41;70.53
71126;BME280;58785;55.566;38.058;2023-04-30T04:30:09;100635.91;;;8.47;70.58
71126;BME280;58785;55.566;38.058;2023-04-30T04:32:35;100641.81;;;8.73;70.00
71126;BME280;58785;55.566;38.058;2023-04-30T04:35:14;100635.03;;;8.80;70.04
71126;BME280;58785;55.566;38.058;2023-04-30T04:37:40;100637.19;;;8.98;69.82
71126;BME280;58785;55.566;38.058;2023-04-30T04:40:07;100636.13;;;9.32;69.13
71126;BME280;58785;55.566;38.058;2023-04-30T04:42:33;100638.63;;;9.66;68.70
71126;BME280;58785;55.566;38.058;2023-04-30T04:44:59;100632.06;;;9.91;68.27
71126;BME280;58785;55.566;38.058;2023-04-30T04:47:25;100628.16;;;10.16;67.48
71126;BME280;58785;55.566;38.058;2023-04-30T04:49:51;100633.31;;;10.28;67.25
71126;BME280;58785;55.566;38.058;2023-04-30T04:52:17;100622.13;;;10.34;67.21
71126;BME280;58785;55.566;38.058;2023-04-30T04:54:42;100604.50;;;10.43;67.22
71126;BME280;58785;55.566;38.058;2023-04-30T04:57:08;100598.91;;;10.56;66.86
71126;BME280;58785;55.566;38.058;2023-04-30T04:59:35;100606.53;;;10.70;67.06
71126;BME280;58785;55.566;38.058;2023-04-30T05:02:01;100611.34;;;10.86;67.19
71126;BME280;58785;55.566;38.058;2023-04-30T05:04:27;100606.19;;;11.04;66.57
71126;BME280;58785;55.566;38.058;2023-04-30T05:06:53;100608.06;;;11.22;66.16
71126;BME280;58785;55.566;38.058;2023-04-30T05:09:19;100609.16;;;11.39;65.95
71126;BME280;58785;55.566;38.058;2023-04-30T05:11:45;100598.06;;;11.54;65.89
71126;BME280;58785;55.566;38.058;2023-04-30T05:14:12;100607.63;;;11.66;65.06
71126;BME280;58785;55.566;38.058;2023-04-30T05:16:38;100599.00;;;11.72;65.12
71126;BME280;58785;55.566;38.058;2023-04-30T05:19:03;100594.25;;;11.85;65.19
71126;BME280;58785;55.566;38.058;2023-04-30T05:21:29;100584.56;;;11.84;63.93
71126;BME280;58785;55.566;38.058;2023-04-30T05:23:56;100608.00;;;11.90;63.32
71126;BME280;58785;55.566;38.058;2023-04-30T05:26:22;100595.91;;;11.96;62.38
71126;BME280;58785;55.566;38.058;2023-04-30T05:28:51;100599.56;;;12.04;62.21
71126;BME280;58785;55.566;38.058;2023-04-30T05:31:17;100597.28;;;12.09;61.79
71126;BME280;58785;55.566;38.058;2023-04-30T05:33:43;100585.84;;;12.27;61.33
71126;BME280;58785;55.566;38.058;2023-04-30T05:36:09;100584.75;;;12.47;60.47
71126;BME280;58785;55.566;38.058;2023-04-30T05:38:35;100588.53;;;12.54;59.76
71126;BME280;58785;55.566;38.058;2023-04-30T05:41:01;100576.78;;;12.65;59.05
71126;BME280;58785;55.566;38.058;2023-04-30T05:43:27;100578.31;;;12.68;58.47
71126;BME280;58785;55.566;38.058;2023-04-30T05:45:53;100575.91;;;12.74;58.00
71126;BME280;58785;55.566;38.058;2023-04-30T05:48:18;100591.09;;;12.74;57.17
71126;BME280;58785;55.566;38.058;2023-04-30T05:50:44;100583.31;;;12.80;56.99
71126;BME280;58785;55.566;38.058;2023-04-30T05:53:10;100592.28;;;13.07;56.73
71126;BME280;58785;55.566;38.058;2023-04-30T05:55:35;100578.25;;;13.22;56.54
71126;BME280;58785;55.566;38.058;2023-04-30T05:58:01;100584.25;;;13.34;56.45
71126;BME280;58785;55.566;38.058;2023-04-30T06:00:27;100586.50;;;13.47;55.69
71126;BME280;58785;55.566;38.058;2023-04-30T06:02:53;100589.34;;;13.63;55.63
71126;BME280;58785;55.566;38.058;2023-04-30T06:05:18;100584.38;;;13.94;55.01
71126;BME280;58785;55.566;38.058;2023-04-30T06:07:44;100588.31;;;14.08;54.76
71126;BME280;58785;55.566;38.058;2023-04-30T06:10:10;100591.38;;;14.13;54.27
71126;BME280;58785;55.566;38.058;2023-04-30T06:12:37;100592.50;;;14.10;54.18
71126;BME280;58785;55.566;38.058;2023-04-30T06:18:57;100594.66;;;14.07;53.89
71126;BME280;58785;55.566;38.058;2023-04-30T06:21:23;100598.91;;;13.92;53.65
71126;BME280;58785;55.566;38.058;2023-04-30T06:23:51;100600.56;;;13.85;53.80
71126;BME280;58785;55.566;38.058;2023-04-30T06:26:20;100596.88;;;13.86;53.81
71126;BME280;58785;55.566;38.058;2023-04-30T06:28:46;100591.69;;;13.84;53.49
71126;BME280;58785;55.566;38.058;2023-04-30T06:31:11;100600.72;;;13.83;52.85
71126;BME280;58785;55.566;38.058;2023-04-30T06:33:37;100606.31;;;13.72;52.20
71126;BME280;58785;55.566;38.058;2023-04-30T06:36:03;100610.78;;;13.45;51.73
71126;BME280;58785;55.566;38.058;2023-04-30T06:38:28;100604.25;;;13.30;51.57
71126;BME280;58785;55.566;38.058;2023-04-30T06:40:54;100598.81;;;13.22;51.69
71126;BME280;58785;55.566;38.058;2023-04-30T06:43:20;100588.47;;;13.09;51.56
71126;BME280;58785;55.566;38.058;2023-04-30T06:45:46;100584.50;;;13.13;51.83
71126;BME280;58785;55.566;38.058;2023-04-30T06:51:52;100598.78;;;12.86;50.14
71126;BME280;58785;55.566;38.058;2023-04-30T06:54:20;100586.41;;;12.58;50.35
71126;BME280;58785;55.566;38.058;2023-04-30T06:56:47;100585.56;;;12.57;51.16
71126;BME280;58785;55.566;38.058;2023-04-30T06:59:12;100579.41;;;12.75;51.62
71126;BME280;58785;55.566;38.058;2023-04-30T07:01:38;100581.72;;;12.87;51.48
71126;BME280;58785;55.566;38.058;2023-04-30T07:04:05;100576.06;;;12.90;51.25
71126;BME280;58785;55.566;38.058;2023-04-30T07:06:31;100576.00;;;13.00;51.03
71126;BME280;58785;55.566;38.058;2023-04-30T07:08:57;100563.16;;;13.04;51.04
71126;BME280;58785;55.566;38.058;2023-04-30T07:11:22;100563.22;;;13.12;50.66
71126;BME280;58785;55.566;38.058;2023-04-30T07:13:48;100551.53;;;13.13;50.50
71126;BME280;58785;55.566;38.058;2023-04-30T07:16:14;100566.00;;;13.20;50.41
71126;BME280;58785;55.566;38.058;2023-04-30T07:18:41;100550.63;;;13.04;49.99
71126;BME280;58785;55.566;38.058;2023-04-30T07:21:07;100555.00;;;12.78;49.25
71126;BME280;58785;55.566;38.058;2023-04-30T07:23:33;100538.09;;;12.59;49.60
71126;BME280;58785;55.566;38.058;2023-04-30T07:25:59;100548.56;;;12.53;49.48
71126;BME280;58785;55.566;38.058;2023-04-30T07:28:25;100528.53;;;12.57;49.80
71126;BME280;58785;55.566;38.058;2023-04-30T07:30:50;100537.09;;;12.60;50.02
71126;BME280;58785;55.566;38.058;2023-04-30T07:33:17;100535.66;;;12.66;49.66
71126;BME280;58785;55.566;38.058;2023-04-30T07:35:43;100529.06;;;12.60;49.26
71126;BME280;58785;55.566;38.058;2023-04-30T07:38:09;100506.19;;;12.48;49.51
71126;BME280;58785;55.566;38.058;2023-04-30T07:40:34;100508.50;;;12.43;49.76
71126;BME280;58785;55.566;38.058;2023-04-30T07:43:00;100499.00;;;12.49;49.35
71126;BME280;58785;55.566;38.058;2023-04-30T07:45:26;100505.81;;;12.61;49.78
71126;BME280;58785;55.566;38.058;2023-04-30T07:47:51;100495.97;;;12.61;49.83
71126;BME280;58785;55.566;38.058;2023-04-30T07:50:17;100485.81;;;12.65;50.01
71126;BME280;58785;55.566;38.058;2023-04-30T07:52:43;100472.44;;;12.65;50.19
71126;BME280;58785;55.566;38.058;2023-04-30T07:55:08;100480.78;;;12.80;49.16
71126;BME280;58785;55.566;38.058;2023-04-30T07:57:34;100462.19;;;12.60;48.79
71126;BME280;58785;55.566;38.058;2023-04-30T08:00:00;100461.66;;;12.57;48.60
71126;BME280;58785;55.566;38.058;2023-04-30T08:02:26;100455.78;;;12.53;48.96
71126;BME280;58785;55.566;38.058;2023-04-30T08:04:52;100449.88;;;12.50;49.18
71126;BME280;58785;55.566;38.058;2023-04-30T08:07:17;100444.53;;;12.50;48.81
71126;BME280;58785;55.566;38.058;2023-04-30T08:09:45;100433.50;;;12.35;48.99
71126;BME280;58785;55.566;38.058;2023-04-30T08:12:10;100431.66;;;12.18;48.49
71126;BME280;58785;55.566;38.058;2023-04-30T08:14:36;100435.31;;;12.17;49.44
71126;BME280;58785;55.566;38.058;2023-04-30T08:17:02;100412.69;;;12.11;48.55
71126;BME280;58785;55.566;38.058;2023-04-30T08:19:28;100411.25;;;12.17;49.40
71126;BME280;58785;55.566;38.058;2023-04-30T08:21:54;100402.91;;;12.20;49.41
71126;BME280;58785;55.566;38.058;2023-04-30T08:24:20;100394.75;;;12.21;49.86
71126;BME280;58785;55.566;38.058;2023-04-30T08:26:46;100387.19;;;12.17;49.71
71126;BME280;58785;55.566;38.058;2023-04-30T08:29:11;100397.19;;;12.15;49.39
71126;BME280;58785;55.566;38.058;2023-04-30T08:31:37;100370.13;;;12.00;49.13
71126;BME280;58785;55.566;38.058;2023-04-30T08:34:02;100378.00;;;12.01;49.33
71126;BME280;58785;55.566;38.058;2023-04-30T08:36:28;100376.47;;;11.99;49.09
71126;BME280;58785;55.566;38.058;2023-04-30T08:38:54;100376.38;;;11.91;49.11
71126;BME280;58785;55.566;38.058;2023-04-30T08:41:24;100392.72;;;11.88;48.93
71126;BME280;58785;55.566;38.058;2023-04-30T08:43:51;100375.44;;;11.82;49.42
71126;BME280;58785;55.566;38.058;2023-04-30T08:46:19;100367.97;;;11.86;50.28
71126;BME280;58785;55.566;38.058;2023-04-30T08:48:45;100367.50;;;11.90;49.64
71126;BME280;58785;55.566;38.058;2023-04-30T08:51:12;100345.84;;;11.93;49.92
71126;BME280;58785;55.566;38.058;2023-04-30T08:53:39;100360.44;;;11.99;49.93
71126;BME280;58785;55.566;38.058;2023-04-30T08:56:05;100366.09;;;11.96;49.69
71126;BME280;58785;55.566;38.058;2023-04-30T08:58:31;100349.13;;;11.87;49.89
71126;BME280;58785;55.566;38.058;2023-04-30T09:00:58;100350.78;;;11.88;50.20
71126;BME280;58785;55.566;38.058;2023-04-30T09:03:24;100338.28;;;11.89;49.93
71126;BME280;58785;55.566;38.058;2023-04-30T09:05:51;100335.16;;;11.93;50.15
71126;BME280;58785;55.566;38.058;2023-04-30T09:08:17;100340.66;;;12.09;49.60
71126;BME280;58785;55.566;38.058;2023-04-30T09:10:43;100339.69;;;12.28;49.90
71126;BME280;58785;55.566;38.058;2023-04-30T09:13:10;100339.03;;;12.52;49.32
71126;BME280;58785;55.566;38.058;2023-04-30T09:15:38;100332.00;;;12.69;49.65
71126;BME280;58785;55.566;38.058;2023-04-30T09:18:11;100319.69;;;12.76;49.51
71126;BME280;58785;55.566;38.058;2023-04-30T09:20:56;100316.47;;;12.99;48.91
71126;BME280;58785;55.566;38.058;2023-04-30T09:23:23;100307.88;;;13.13;48.75
71126;BME280;58785;55.566;38.058;2023-04-30T09:25:49;100294.44;;;13.05;48.67
71126;BME280;58785;55.566;38.058;2023-04-30T09:28:15;100310.22;;;13.16;48.47
71126;BME280;58785;55.566;38.058;2023-04-30T09:30:41;100307.56;;;13.16;48.29
71126;BME280;58785;55.566;38.058;2023-04-30T09:33:08;100293.00;;;13.18;48.49
71126;BME280;58785;55.566;38.058;2023-04-30T09:35:36;100303.72;;;13.18;47.96
71126;BME280;58785;55.566;38.058;2023-04-30T09:38:04;100289.44;;;13.10;48.09
71126;BME280;58785;55.566;38.058;2023-04-30T09:40:38;100292.06;;;13.02;48.36
71126;BME280;58785;55.566;38.058;2023-04-30T09:43:07;100288.66;;;13.17;48.54
71126;BME280;58785;55.566;38.058;2023-04-30T09:45:46;100283.88;;;13.29;48.30
71126;BME280;58785;55.566;38.058;2023-04-30T09:48:17;100270.03;;;13.34;47.69
71126;BME280;58785;55.566;38.058;2023-04-30T09:50:43;100281.88;;;13.31;47.88
71126;BME280;58785;55.566;38.058;2023-04-30T09:53:11;100275.03;;;13.37;48.04
71126;BME280;58785;55.566;38.058;2023-04-30T09:55:44;100271.53;;;13.36;47.97
71126;BME280;58785;55.566;38.058;2023-04-30T09:58:11;100272.53;;;13.35;47.94
71126;BME280;58785;55.566;38.058;2023-04-30T10:00:38;100273.84;;;13.31;47.63
71126;BME280;58785;55.566;38.058;2023-04-30T10:03:06;100272.53;;;13.35;47.42
71126;BME280;58785;55.566;38.058;2023-04-30T10:05:44;100275.97;;;13.19;47.74
71126;BME280;58785;55.566;38.058;2023-04-30T10:08:26;100286.72;;;13.28;47.73
71126;BME280;58785;55.566;38.058;2023-04-30T10:11:03;100266.97;;;13.29;47.62
71126;BME280;58785;55.566;38.058;2023-04-30T10:13:39;100259.81;;;13.37;47.40
71126;BME280;58785;55.566;38.058;2023-04-30T10:16:17;100266.38;;;13.43;47.75
71126;BME280;58785;55.566;38.058;2023-04-30T10:18:49;100255.94;;;13.32;47.79
71126;BME280;58785;55.566;38.058;2023-04-30T10:21:17;100271.53;;;13.36;47.56
71126;BME280;58785;55.566;38.058;2023-04-30T10:23:46;100259.81;;;13.37;47.88
71126;BME280;58785;55.566;38.058;2023-04-30T10:26:13;100281.75;;;13.41;47.72
71126;BME280;58785;55.566;38.058;2023-04-30T10:28:41;100284.09;;;13.36;47.73
71126;BME280;58785;55.566;38.058;2023-04-30T10:31:07;100260.78;;;13.28;47.38
71126;BME280;58785;55.566;38.058;2023-04-30T10:33:45;100253.31;;;13.14;47.47
71126;BME280;58785;55.566;38.058;2023-04-30T10:36:23;100277.06;;;13.35;47.85
71126;BME280;58785;55.566;38.058;2023-04-30T10:38:52;100283.41;;;13.42;48.09
71126;BME280;58785;55.566;38.058;2023-04-30T10:41:19;100280.72;;;13.34;48.16
71126;BME280;58785;55.566;38.058;2023-04-30T10:43:46;100282.56;;;13.33;48.56
71126;BME280;58785;55.566;38.058;2023-04-30T10:46:21;100282.41;;;13.35;48.73
71126;BME280;58785;55.566;38.058;2023-04-30T10:48:48;100269.47;;;13.30;48.97
71126;BME280;58785;55.566;38.058;2023-04-30T10:51:15;100265.47;;;13.26;48.88
71126;BME280;58785;55.566;38.058;2023-04-30T10:53:41;100252.50;;;13.13;48.99
71126;BME280;58785;55.566;38.058;2023-04-30T10:56:07;100249.28;;;13.10;48.93
71126;BME280;58785;55.566;38.058;2023-04-30T10:58:38;100250.66;;;13.14;49.21
71126;BME280;58785;55.566;38.058;2023-04-30T11:01:10;100252.78;;;13.10;48.42
71126;BME280;58785;55.566;38.058;2023-04-30T11:03:37;100248.78;;;13.06;49.01
71126;BME280;58785;55.566;38.058;2023-04-30T11:06:15;100234.16;;;13.01;49.28
71126;BME280;58785;55.566;38.058;2023-04-30T11:08:45;100239.22;;;13.04;49.35
71126;BME280;58785;55.566;38.058;2023-04-30T11:11:17;100229.66;;;13.01;49.28
71126;BME280;58785;55.566;38.058;2023-04-30T11:13:47;100215.94;;;12.96;49.34
71126;BME280;58785;55.566;38.058;2023-04-30T11:16:28;100222.06;;;12.88;49.21
71126;BME280;58785;55.566;38.058;2023-04-30T11:19:05;100209.31;;;12.82;49.37
71126;BME280;58785;55.566;38.058;2023-04-30T11:21:31;100211.50;;;12.79;49.19
71126;BME280;58785;55.566;38.058;2023-04-30T11:24:02;100200.72;;;12.71;48.85
71126;BME280;58785;55.566;38.058;2023-04-30T11:26:28;100194.59;;;12.78;49.63
71126;BME280;58785;55.566;38.058;2023-04-30T11:28:55;100203.47;;;12.79;49.39
71126;BME280;58785;55.566;38.058;2023-04-30T11:31:22;100197.06;;;12.72;49.55
71126;BME280;58785;55.566;38.058;2023-04-30T11:34:00;100193.66;;;12.61;49.85
71126;BME280;58785;55.566;38.058;2023-04-30T11:36:29;100193.47;;;12.55;50.38
71126;BME280;58785;55.566;38.058;2023-04-30T11:38:56;100185.75;;;12.52;50.38
71126;BME280;58785;55.566;38.058;2023-04-30T11:41:23;100178.88;;;12.49;50.61
71126;BME280;58785;55.566;38.058;2023-04-30T11:43:51;100176.38;;;12.48;50.75
71126;BME280;58785;55.566;38.058;2023-04-30T11:46:17;100176.03;;;12.43;51.01
71126;BME280;58785;55.566;38.058;2023-04-30T11:48:45;100172.44;;;12.34;50.67
71126;BME280;58785;55.566;38.058;2023-04-30T11:51:20;100167.88;;;12.26;51.35
71126;BME280;58785;55.566;38.058;2023-04-30T11:53:48;100172.00;;;12.21;51.28
71126;BME280;58785;55.566;38.058;2023-04-30T11:56:22;100181.66;;;12.14;51.08
71126;BME280;58785;55.566;38.058;2023-04-30T11:58:50;100162.16;;;11.95;50.88
71126;BME280;58785;55.566;38.058;2023-04-30T12:01:16;100173.88;;;12.02;51.39
71126;BME280;58785;55.566;38.058;2023-04-30T12:03:44;100181.22;;;12.00;51.96
71126;BME280;58785;55.566;38.058;2023-04-30T12:06:11;100180.22;;;12.01;51.39
71126;BME280;58785;55.566;38.058;2023-04-30T12:08:46;100178.00;;;11.97;51.47
71126;BME280;58785;55.566;38.058;2023-04-30T12:11:22;100186.19;;;11.95;51.46
71126;BME280;58785;55.566;38.058;2023-04-30T12:14:03;100183.69;;;11.94;51.51
71126;BME280;58785;55.566;38.058;2023-04-30T12:16:42;100180.69;;;11.97;52.06
71126;BME280;58785;55.566;38.058;2023-04-30T12:19:14;100178.84;;;11.97;52.42
71126;BME280;58785;55.566;38.058;2023-04-30T12:21:42;100184.03;;;11.99;52.23
71126;BME280;58785;55.566;38.058;2023-04-30T12:24:15;100174.66;;;11.95;51.81
71126;BME280;58785;55.566;38.058;2023-04-30T12:26:42;100181.53;;;11.97;51.91
71126;BME280;58785;55.566;38.058;2023-04-30T12:29:09;100190.78;;;12.03;51.90
71126;BME280;58785;55.566;38.058;2023-04-30T12:31:37;100186.41;;;12.02;52.19
71126;BME280;58785;55.566;38.058;2023-04-30T12:34:06;100173.13;;;11.92;51.95
71126;BME280;58785;55.566;38.058;2023-04-30T12:36:33;100165.66;;;11.96;51.89
71126;BME280;58785;55.566;38.058;2023-04-30T12:39:13;100161.81;;;11.98;52.09
71126;BME280;58785;55.566;38.058;2023-04-30T12:41:45;100164.34;;;12.00;52.28
71126;BME280;58785;55.566;38.058;2023-04-30T12:44:23;100161.66;;;12.00;51.88
71126;BME280;58785;55.566;38.058;2023-04-30T12:46:53;100159.81;;;12.00;51.73
71126;BME280;58785;55.566;38.058;2023-04-30T12:49:27;100162.34;;;12.02;52.36
71126;BME280;58785;55.566;38.058;2023-04-30T12:51:58;100159.66;;;12.02;52.14
71126;BME280;58785;55.566;38.058;2023-04-30T12:54:29;100163.19;;;12.02;52.18
71126;BME280;58785;55.566;38.058;2023-04-30T12:57:07;100160.22;;;12.05;52.41
71126;BME280;58785;55.566;38.058;2023-04-30T12:59:39;100162.22;;;12.03;52.43
71126;BME280;58785;55.566;38.058;2023-04-30T13:02:23;100165.56;;;12.05;52.80
71126;BME280;58785;55.566;38.058;2023-04-30T13:04:49;100152.28;;;11.96;52.43
71126;BME280;58785;55.566;38.058;2023-04-30T13:07:15;100158.84;;;12.01;52.70
71126;BME280;58785;55.566;38.058;2023-04-30T13:09:43;100163.34;;;12.01;52.71